sensor_id;sensor_type;location;lat;lon;timestamp;P1;durP1;ratioP1;P2;durP2;ratioP2
19741;SDS011;10028;48.822;11.854;2022-09-23T00:01:10;3.33;;;3.23;;
19741;SDS011;10028;48.822;11.854;2022-09-23T00:03:40;2.00;;;2.00;;
19741;SDS011;10028;48.822;11.854;2022-09-23T00:06:08;2.43;;;2.33;;
19741;SDS011;10028;48.822;11.854;2022-09-23T00:08:38;2.37;;;2.27;;
19741;SDS011;10028;48.822;11.854;2022-09-23T00:11:16;2.37;;;2.27;;
19741;SDS011;10028;48.822;11.854;2022-09-23T00:13:45;2.40;;;2.30;;
19741;SDS011;10028;48.822;11.854;2022-09-23T00:16:35;2.77;;;2.67;;
19741;SDS011;10028;48.822;11.854;2022-09-23T00:19:02;2.30;;;2.20;;
19741;SDS011;10028;48.822;11.854;2022-09-23T00:21:29;2.40;;;2.30;;
19741;SDS011;10028;48.822;11.854;2022-09-23T00:23:57;2.57;;;2.47;;
19741;SDS011;10028;48.822;11.854;2022-09-23T00:26:24;2.40;;;2.30;;
19741;SDS011;10028;48.822;11.854;2022-09-23T00:28:51;2.47;;;2.37;;
19741;SDS011;10028;48.822;11.854;2022-09-23T00:31:19;2.60;;;2.50;;
19741;SDS011;10028;48.822;11.854;2022-09-23T00:33:55;2.40;;;2.30;;
19741;SDS011;10028;48.822;11.854;2022-09-23T00:36:25;2.40;;;2.30;;
19741;SDS011;10028;48.822;11.854;2022-09-23T00:38:53;2.30;;;2.20;;
19741;SDS011;10028;48.822;11.854;2022-09-23T00:41:20;2.70;;;2.60;;
19741;SDS011;10028;48.822;11.854;2022-09-23T00:43:51;2.50;;;2.40;;
19741;SDS011;10028;48.822;11.854;2022-09-23T00:46:41;2.50;;;2.40;;
19741;SDS011;10028;48.822;11.854;2022-09-23T00:49:12;2.87;;;2.77;;
19741;SDS011;10028;48.822;11.854;2022-09-23T00:51:48;2.90;;;2.80;;
19741;SDS011;10028;48.822;11.854;2022-09-23T00:54:21;2.50;;;2.40;;
19741;SDS011;10028;48.822;11.854;2022-09-23T00:56:50;2.30;;;2.20;;
19741;SDS011;10028;48.822;11.854;2022-09-23T00:59:18;2.40;;;2.30;;
19741;SDS011;10028;48.822;11.854;2022-09-23T01:01:47;2.60;;;2.50;;
19741;SDS011;10028;48.822;11.854;2022-09-23T01:04:15;3.80;;;3.60;;
19741;SDS011;10028;48.822;11.854;2022-09-23T01:06:42;2.50;;;2.40;;
19741;SDS011;10028;48.822;11.854;2022-09-23T01:09:09;3.00;;;2.90;;
19741;SDS011;10028;48.822;11.854;2022-09-23T01:11:39;2.50;;;2.40;;
19741;SDS011;10028;48.822;11.854;2022-09-23T01:16:46;2.40;;;2.30;;
19741;SDS011;10028;48.822;11.854;2022-09-23T01:28:29;2.40;;;2.30;;
19741;SDS011;10028;48.822;11.854;2022-09-23T01:31:19;4.63;;;4.23;;
19741;SDS011;10028;48.822;11.854;2022-09-23T01:33:55;2.70;;;2.60;;
19741;SDS011;10028;48.822;11.854;2022-09-23T01:44:21;2.60;;;2.50;;
19741;SDS011;10028;48.822;11.854;2022-09-23T01:46:51;2.57;;;2.47;;
19741;SDS011;10028;48.822;11.854;2022-09-23T01:52:13;2.83;;;2.73;;
19741;SDS011;10028;48.822;11.854;2022-09-23T01:55:18;2.53;;;2.43;;
19741;SDS011;10028;48.822;11.854;2022-09-23T01:58:01;2.50;;;2.40;;
19741;SDS011;10028;48.822;11.854;2022-09-23T02:00:43;2.40;;;2.30;;
19741;SDS011;10028;48.822;11.854;2022-09-23T02:03:18;2.57;;;2.47;;
19741;SDS011;10028;48.822;11.854;2022-09-23T02:05:55;2.60;;;2.50;;
19741;SDS011;10028;48.822;11.854;2022-09-23T02:08:44;2.93;;;2.83;;
19741;SDS011;10028;48.822;11.854;2022-09-23T02:11:16;3.00;;;2.90;;
19741;SDS011;10028;48.822;11.854;2022-09-23T02:13:49;2.37;;;2.27;;
19741;SDS011;10028;48.822;11.854;2022-09-23T02:16:30;2.70;;;2.60;;
19741;SDS011;10028;48.822;11.854;2022-09-23T02:19:19;2.60;;;2.50;;
19741;SDS011;10028;48.822;11.854;2022-09-23T02:21:51;2.50;;;2.40;;
19741;SDS011;10028;48.822;11.854;2022-09-23T02:24:28;2.90;;;2.80;;
19741;SDS011;10028;48.822;11.854;2022-09-23T02:26:58;2.50;;;2.40;;
19741;SDS011;10028;48.822;11.854;2022-09-23T02:29:54;2.63;;;2.53;;
19741;SDS011;10028;48.822;11.854;2022-09-23T02:35:04;2.60;;;2.50;;
19741;SDS011;10028;48.822;11.854;2022-09-23T02:37:51;2.97;;;2.87;;
19741;SDS011;10028;48.822;11.854;2022-09-23T02:43:23;3.57;;;3.37;;
19741;SDS011;10028;48.822;11.854;2022-09-23T02:46:02;2.40;;;2.30;;
19741;SDS011;10028;48.822;11.854;2022-09-23T02:48:33;2.47;;;2.37;;
19741;SDS011;10028;48.822;11.854;2022-09-23T02:51:02;3.57;;;3.37;;
19741;SDS011;10028;48.822;11.854;2022-09-23T02:53:29;2.60;;;2.50;;
19741;SDS011;10028;48.822;11.854;2022-09-23T02:56:00;2.70;;;2.60;;
19741;SDS011;10028;48.822;11.854;2022-09-23T02:58:28;3.27;;;3.17;;
19741;SDS011;10028;48.822;11.854;2022-09-23T03:01:02;2.70;;;2.60;;
19741;SDS011;10028;48.822;11.854;2022-09-23T03:03:39;2.47;;;2.37;;
19741;SDS011;10028;48.822;11.854;2022-09-23T03:06:19;2.33;;;2.23;;
19741;SDS011;10028;48.822;11.854;2022-09-23T03:09:32;2.80;;;2.70;;
19741;SDS011;10028;48.822;11.854;2022-09-23T03:11:49;4.43;;;4.13;;
19741;SDS011;10028;48.822;11.854;2022-09-23T03:17:11;2.80;;;2.70;;
19741;SDS011;10028;48.822;11.854;2022-09-23T03:19:56;2.70;;;2.60;;
19741;SDS011;10028;48.822;11.854;2022-09-23T03:22:28;2.80;;;2.70;;
19741;SDS011;10028;48.822;11.854;2022-09-23T03:25:09;2.70;;;2.60;;
19741;SDS011;10028;48.822;11.854;2022-09-23T03:27:39;2.90;;;2.80;;
19741;SDS011;10028;48.822;11.854;2022-09-23T03:30:07;2.60;;;2.50;;
19741;SDS011;10028;48.822;11.854;2022-09-23T03:32:35;2.80;;;2.70;;
19741;SDS011;10028;48.822;11.854;2022-09-23T03:35:03;3.00;;;2.90;;
19741;SDS011;10028;48.822;11.854;2022-09-23T03:37:32;2.90;;;2.80;;
19741;SDS011;10028;48.822;11.854;2022-09-23T03:40:12;2.80;;;2.70;;
19741;SDS011;10028;48.822;11.854;2022-09-23T03:42:45;2.60;;;2.50;;
19741;SDS011;10028;48.822;11.854;2022-09-23T03:45:20;2.80;;;2.70;;
19741;SDS011;10028;48.822;11.854;2022-09-23T03:47:51;3.10;;;3.00;;
19741;SDS011;10028;48.822;11.854;2022-09-23T03:50:19;2.70;;;2.60;;
19741;SDS011;10028;48.822;11.854;2022-09-23T03:52:46;2.50;;;2.40;;
19741;SDS011;10028;48.822;11.854;2022-09-23T03:55:16;3.07;;;2.97;;
19741;SDS011;10028;48.822;11.854;2022-09-23T03:57:43;3.00;;;2.90;;
19741;SDS011;10028;48.822;11.854;2022-09-23T04:00:11;2.70;;;2.60;;
19741;SDS011;10028;48.822;11.854;2022-09-23T04:02:39;2.87;;;2.77;;
19741;SDS011;10028;48.822;11.854;2022-09-23T04:05:06;2.73;;;2.63;;
19741;SDS011;10028;48.822;11.854;2022-09-23T04:07:34;2.60;;;2.50;;
19741;SDS011;10028;48.822;11.854;2022-09-23T04:10:01;2.80;;;2.70;;
19741;SDS011;10028;48.822;11.854;2022-09-23T04:12:30;2.60;;;2.50;;
19741;SDS011;10028;48.822;11.854;2022-09-23T04:14:57;2.90;;;2.80;;
19741;SDS011;10028;48.822;11.854;2022-09-23T04:17:25;2.77;;;2.67;;
19741;SDS011;10028;48.822;11.854;2022-09-23T04:19:52;3.27;;;3.17;;
19741;SDS011;10028;48.822;11.854;2022-09-23T04:22:19;3.97;;;3.80;;
19741;SDS011;10028;48.822;11.854;2022-09-23T04:24:46;2.80;;;2.70;;
19741;SDS011;10028;48.822;11.854;2022-09-23T04:27:14;3.07;;;2.97;;
19741;SDS011;10028;48.822;11.854;2022-09-23T04:29:41;2.80;;;2.70;;
19741;SDS011;10028;48.822;11.854;2022-09-23T04:32:08;3.47;;;3.37;;
19741;SDS011;10028;48.822;11.854;2022-09-23T04:34:36;3.10;;;3.00;;
19741;SDS011;10028;48.822;11.854;2022-09-23T04:37:03;3.40;;;3.30;;
19741;SDS011;10028;48.822;11.854;2022-09-23T04:39:30;2.80;;;2.70;;
19741;SDS011;10028;48.822;11.854;2022-09-23T04:41:57;2.70;;;2.60;;
19741;SDS011;10028;48.822;11.854;2022-09-23T04:44:25;3.20;;;3.10;;
19741;SDS011;10028;48.822;11.854;2022-09-23T04:46:53;2.90;;;2.80;;
19741;SDS011;10028;48.822;11.854;2022-09-23T04:49:20;2.70;;;2.60;;
19741;SDS011;10028;48.822;11.854;2022-09-23T04:51:48;2.87;;;2.77;;
19741;SDS011;10028;48.822;11.854;2022-09-23T04:54:15;3.10;;;3.00;;
19741;SDS011;10028;48.822;11.854;2022-09-23T04:56:43;3.20;;;3.10;;
19741;SDS011;10028;48.822;11.854;2022-09-23T04:59:10;3.00;;;2.90;;
19741;SDS011;10028;48.822;11.854;2022-09-23T05:01:37;3.27;;;3.17;;
19741;SDS011;10028;48.822;11.854;2022-09-23T05:04:06;3.37;;;3.27;;
19741;SDS011;10028;48.822;11.854;2022-09-23T05:06:35;2.80;;;2.70;;
19741;SDS011;10028;48.822;11.854;2022-09-23T05:09:04;3.20;;;3.10;;
19741;SDS011;10028;48.822;11.854;2022-09-23T05:11:33;2.97;;;2.87;;
19741;SDS011;10028;48.822;11.854;2022-09-23T05:14:00;3.00;;;2.90;;
19741;SDS011;10028;48.822;11.854;2022-09-23T05:16:27;2.80;;;2.70;;
19741;SDS011;10028;48.822;11.854;2022-09-23T05:18:55;3.73;;;3.53;;
19741;SDS011;10028;48.822;11.854;2022-09-23T05:21:23;4.00;;;3.80;;
19741;SDS011;10028;48.822;11.854;2022-09-23T05:23:52;3.43;;;3.33;;
19741;SDS011;10028;48.822;11.854;2022-09-23T05:26:22;2.80;;;2.70;;
19741;SDS011;10028;48.822;11.854;2022-09-23T05:28:53;3.03;;;2.93;;
19741;SDS011;10028;48.822;11.854;2022-09-23T05:31:21;2.80;;;2.70;;
19741;SDS011;10028;48.822;11.854;2022-09-23T05:33:51;2.67;;;2.57;;
19741;SDS011;10028;48.822;11.854;2022-09-23T05:36:20;3.20;;;3.10;;
19741;SDS011;10028;48.822;11.854;2022-09-23T05:38:48;2.87;;;2.77;;
19741;SDS011;10028;48.822;11.854;2022-09-23T05:41:16;5.73;;;5.33;;
19741;SDS011;10028;48.822;11.854;2022-09-23T05:43:44;8.33;;;5.80;;
19741;SDS011;10028;48.822;11.854;2022-09-23T05:46:13;4.90;;;4.60;;
19741;SDS011;10028;48.822;11.854;2022-09-23T05:48:41;42.17;;;6.77;;
19741;SDS011;10028;48.822;11.854;2022-09-23T05:51:17;3.27;;;3.17;;
19741;SDS011;10028;48.822;11.854;2022-09-23T05:53:46;3.20;;;3.10;;
19741;SDS011;10028;48.822;11.854;2022-09-23T05:56:18;2.97;;;2.87;;
19741;SDS011;10028;48.822;11.854;2022-09-23T05:58:47;2.70;;;2.60;;
19741;SDS011;10028;48.822;11.854;2022-09-23T06:01:16;2.70;;;2.60;;
19741;SDS011;10028;48.822;11.854;2022-09-23T06:03:47;3.07;;;2.97;;
19741;SDS011;10028;48.822;11.854;2022-09-23T06:06:15;3.03;;;2.93;;
19741;SDS011;10028;48.822;11.854;2022-09-23T06:08:43;3.13;;;3.03;;
19741;SDS011;10028;48.822;11.854;2022-09-23T06:11:11;2.50;;;2.40;;
19741;SDS011;10028;48.822;11.854;2022-09-23T06:13:39;2.70;;;2.60;;
19741;SDS011;10028;48.822;11.854;2022-09-23T06:16:07;3.27;;;3.17;;
19741;SDS011;10028;48.822;11.854;2022-09-23T06:18:39;2.70;;;2.60;;
19741;SDS011;10028;48.822;11.854;2022-09-23T06:21:11;3.20;;;3.10;;
19741;SDS011;10028;48.822;11.854;2022-09-23T06:23:40;2.60;;;2.50;;
19741;SDS011;10028;48.822;11.854;2022-09-23T06:26:08;3.00;;;2.90;;
19741;SDS011;10028;48.822;11.854;2022-09-23T06:28:38;2.80;;;2.70;;
19741;SDS011;10028;48.822;11.854;2022-09-23T06:31:08;4.40;;;4.00;;
19741;SDS011;10028;48.822;11.854;2022-09-23T06:33:39;2.60;;;2.50;;
19741;SDS011;10028;48.822;11.854;2022-09-23T06:36:07;3.00;;;2.90;;
19741;SDS011;10028;48.822;11.854;2022-09-23T06:38:39;2.50;;;2.40;;
19741;SDS011;10028;48.822;11.854;2022-09-23T06:41:06;2.40;;;2.30;;
19741;SDS011;10028;48.822;11.854;2022-09-23T06:43:34;2.50;;;2.40;;
19741;SDS011;10028;48.822;11.854;2022-09-23T06:46:01;2.40;;;2.30;;
19741;SDS011;10028;48.822;11.854;2022-09-23T06:48:30;2.50;;;2.40;;
19741;SDS011;10028;48.822;11.854;2022-09-23T06:51:01;2.43;;;2.33;;
19741;SDS011;10028;48.822;11.854;2022-09-23T06:53:30;3.13;;;3.03;;
19741;SDS011;10028;48.822;11.854;2022-09-23T06:55:58;2.40;;;2.30;;
19741;SDS011;10028;48.822;11.854;2022-09-23T06:58:28;2.43;;;2.33;;
19741;SDS011;10028;48.822;11.854;2022-09-23T07:01:17;2.50;;;2.40;;
19741;SDS011;10028;48.822;11.854;2022-09-23T07:03:44;2.10;;;2.10;;
19741;SDS011;10028;48.822;11.854;2022-09-23T07:06:12;2.00;;;2.00;;
19741;SDS011;10028;48.822;11.854;2022-09-23T07:08:41;2.10;;;2.10;;
19741;SDS011;10028;48.822;11.854;2022-09-23T07:11:10;2.17;;;2.17;;
19741;SDS011;10028;48.822;11.854;2022-09-23T07:13:39;2.60;;;2.50;;
19741;SDS011;10028;48.822;11.854;2022-09-23T07:16:07;2.47;;;2.37;;
19741;SDS011;10028;48.822;11.854;2022-09-23T07:18:36;2.60;;;2.50;;
19741;SDS011;10028;48.822;11.854;2022-09-23T07:21:08;2.33;;;2.23;;
19741;SDS011;10028;48.822;11.854;2022-09-23T07:23:38;2.27;;;2.23;;
19741;SDS011;10028;48.822;11.854;2022-09-23T07:26:06;2.33;;;2.23;;
19741;SDS011;10028;48.822;11.854;2022-09-23T07:28:34;3.77;;;3.57;;
19741;SDS011;10028;48.822;11.854;2022-09-23T07:31:05;2.60;;;2.50;;
19741;SDS011;10028;48.822;11.854;2022-09-23T07:33:35;2.50;;;2.40;;
19741;SDS011;10028;48.822;11.854;2022-09-23T07:36:05;2.87;;;2.77;;
19741;SDS011;10028;48.822;11.854;2022-09-23T07:38:33;2.17;;;2.13;;
19741;SDS011;10028;48.822;11.854;2022-09-23T07:41:02;2.00;;;2.00;;
19741;SDS011;10028;48.822;11.854;2022-09-23T07:43:34;2.37;;;2.27;;
19741;SDS011;10028;48.822;11.854;2022-09-23T07:46:03;2.10;;;2.10;;
19741;SDS011;10028;48.822;11.854;2022-09-23T07:48:34;2.30;;;2.20;;
19741;SDS011;10028;48.822;11.854;2022-09-23T07:53:36;2.10;;;2.10;;
19741;SDS011;10028;48.822;11.854;2022-09-23T07:56:03;2.60;;;2.50;;
19741;SDS011;10028;48.822;11.854;2022-09-23T07:58:32;1.90;;;1.90;;
19741;SDS011;10028;48.822;11.854;2022-09-23T08:01:00;2.07;;;2.07;;
19741;SDS011;10028;48.822;11.854;2022-09-23T08:03:29;2.23;;;2.20;;
19741;SDS011;10028;48.822;11.854;2022-09-23T08:06:07;2.30;;;2.20;;
19741;SDS011;10028;48.822;11.854;2022-09-23T08:08:35;2.43;;;2.33;;
19741;SDS011;10028;48.822;11.854;2022-09-23T08:11:09;2.10;;;2.10;;
19741;SDS011;10028;48.822;11.854;2022-09-23T08:13:38;2.00;;;2.00;;
19741;SDS011;10028;48.822;11.854;2022-09-23T08:16:06;2.67;;;2.57;;
19741;SDS011;10028;48.822;11.854;2022-09-23T08:18:33;1.90;;;1.90;;
19741;SDS011;10028;48.822;11.854;2022-09-23T08:21:01;2.10;;;2.10;;
19741;SDS011;10028;48.822;11.854;2022-09-23T08:23:28;1.90;;;1.90;;
19741;SDS011;10028;48.822;11.854;2022-09-23T08:26:00;2.10;;;2.10;;
19741;SDS011;10028;48.822;11.854;2022-09-23T08:28:30;1.90;;;1.90;;
19741;SDS011;10028;48.822;11.854;2022-09-23T08:31:01;2.37;;;2.27;;
19741;SDS011;10028;48.822;11.854;2022-09-23T08:33:28;2.07;;;2.07;;
19741;SDS011;10028;48.822;11.854;2022-09-23T08:36:01;2.10;;;2.10;;
19741;SDS011;10028;48.822;11.854;2022-09-23T08:38:28;3.80;;;3.60;;
19741;SDS011;10028;48.822;11.854;2022-09-23T08:41:33;2.40;;;2.30;;
19741;SDS011;10028;48.822;11.854;2022-09-23T08:43:58;2.53;;;2.43;;
19741;SDS011;10028;48.822;11.854;2022-09-23T08:46:34;1.80;;;1.80;;
19741;SDS011;10028;48.822;11.854;2022-09-23T08:49:05;2.07;;;2.03;;
19741;SDS011;10028;48.822;11.854;2022-09-23T08:51:35;1.80;;;1.80;;
19741;SDS011;10028;48.822;11.854;2022-09-23T08:54:13;2.00;;;2.00;;
19741;SDS011;10028;48.822;11.854;2022-09-23T08:56:43;2.20;;;2.20;;
19741;SDS011;10028;48.822;11.854;2022-09-23T09:01:42;1.80;;;1.80;;
19741;SDS011;10028;48.822;11.854;2022-09-23T09:04:26;1.60;;;1.60;;
19741;SDS011;10028;48.822;11.854;2022-09-23T09:10:15;2.10;;;2.10;;
19741;SDS011;10028;48.822;11.854;2022-09-23T09:12:46;3.37;;;3.27;;
19741;SDS011;10028;48.822;11.854;2022-09-23T09:15:22;1.80;;;1.80;;
19741;SDS011;10028;48.822;11.854;2022-09-23T09:20:44;1.70;;;1.70;;
19741;SDS011;10028;48.822;11.854;2022-09-23T09:23:37;1.60;;;1.60;;
19741;SDS011;10028;48.822;11.854;2022-09-23T09:26:10;1.60;;;1.60;;
19741;SDS011;10028;48.822;11.854;2022-09-23T09:29:08;1.57;;;1.57;;
19741;SDS011;10028;48.822;11.854;2022-09-23T09:32:01;2.30;;;2.23;;
19741;SDS011;10028;48.822;11.854;2022-09-23T09:34:48;1.57;;;1.57;;
19741;SDS011;10028;48.822;11.854;2022-09-23T09:39:47;1.47;;;1.47;;
19741;SDS011;10028;48.822;11.854;2022-09-23T09:42:16;1.83;;;1.83;;
19741;SDS011;10028;48.822;11.854;2022-09-23T09:44:49;1.83;;;1.83;;
19741;SDS011;10028;48.822;11.854;2022-09-23T09:50:18;1.70;;;1.70;;
19741;SDS011;10028;48.822;11.854;2022-09-23T09:58:49;1.73;;;1.73;;
19741;SDS011;10028;48.822;11.854;2022-09-23T10:03:44;1.87;;;1.87;;
19741;SDS011;10028;48.822;11.854;2022-09-23T10:06:15;1.50;;;1.50;;
19741;SDS011;10028;48.822;11.854;2022-09-23T10:08:50;2.00;;;1.90;;
19741;SDS011;10028;48.822;11.854;2022-09-23T10:11:28;2.03;;;2.03;;
19741;SDS011;10028;48.822;11.854;2022-09-23T10:16:46;1.87;;;1.83;;
19741;SDS011;10028;48.822;11.854;2022-09-23T10:19:31;1.70;;;1.70;;
19741;SDS011;10028;48.822;11.854;2022-09-23T10:22:01;1.83;;;1.83;;
19741;SDS011;10028;48.822;11.854;2022-09-23T10:24:34;1.83;;;1.83;;
19741;SDS011;10028;48.822;11.854;2022-09-23T10:27:02;2.23;;;2.17;;
19741;SDS011;10028;48.822;11.854;2022-09-23T10:29:37;1.57;;;1.57;;
19741;SDS011;10028;48.822;11.854;2022-09-23T10:32:28;1.63;;;1.63;;
19741;SDS011;10028;48.822;11.854;2022-09-23T10:40:12;1.60;;;1.60;;
19741;SDS011;10028;48.822;11.854;2022-09-23T10:54:08;1.57;;;1.57;;
19741;SDS011;10028;48.822;11.854;2022-09-23T10:56:53;1.50;;;1.50;;
19741;SDS011;10028;48.822;11.854;2022-09-23T11:02:30;1.47;;;1.47;;
19741;SDS011;10028;48.822;11.854;2022-09-23T11:13:36;1.60;;;1.60;;
19741;SDS011;10028;48.822;11.854;2022-09-23T11:18:50;1.40;;;1.40;;
19741;SDS011;10028;48.822;11.854;2022-09-23T11:29:40;1.63;;;1.63;;
19741;SDS011;10028;48.822;11.854;2022-09-23T11:35:22;1.27;;;1.27;;
19741;SDS011;10028;48.822;11.854;2022-09-23T11:37:59;1.63;;;1.63;;
19741;SDS011;10028;48.822;11.854;2022-09-23T11:40:31;1.97;;;1.97;;
19741;SDS011;10028;48.822;11.854;2022-09-23T11:45:39;1.50;;;1.50;;
19741;SDS011;10028;48.822;11.854;2022-09-23T11:48:17;1.73;;;1.73;;
19741;SDS011;10028;48.822;11.854;2022-09-23T11:50:54;1.87;;;1.87;;
19741;SDS011;10028;48.822;11.854;2022-09-23T11:53:53;1.87;;;1.77;;
19741;SDS011;10028;48.822;11.854;2022-09-23T11:56:26;2.40;;;2.30;;
19741;SDS011;10028;48.822;11.854;2022-09-23T11:59:07;1.57;;;1.57;;
19741;SDS011;10028;48.822;11.854;2022-09-23T12:01:44;2.17;;;2.07;;
19741;SDS011;10028;48.822;11.854;2022-09-23T12:04:36;1.33;;;1.33;;
19741;SDS011;10028;48.822;11.854;2022-09-23T12:07:28;1.10;;;1.10;;
19741;SDS011;10028;48.822;11.854;2022-09-23T12:10:05;1.63;;;1.63;;
19741;SDS011;10028;48.822;11.854;2022-09-23T12:12:37;1.67;;;1.67;;
19741;SDS011;10028;48.822;11.854;2022-09-23T12:20:47;1.50;;;1.50;;
19741;SDS011;10028;48.822;11.854;2022-09-23T12:26:01;1.30;;;1.30;;
19741;SDS011;10028;48.822;11.854;2022-09-23T12:28:35;1.60;;;1.60;;
19741;SDS011;10028;48.822;11.854;2022-09-23T12:31:12;1.30;;;1.30;;
19741;SDS011;10028;48.822;11.854;2022-09-23T12:33:51;1.20;;;1.20;;
19741;SDS011;10028;48.822;11.854;2022-09-23T12:36:28;1.57;;;1.57;;
19741;SDS011;10028;48.822;11.854;2022-09-23T12:42:15;1.80;;;1.80;;
19741;SDS011;10028;48.822;11.854;2022-09-23T12:44:46;1.50;;;1.50;;
19741;SDS011;10028;48.822;11.854;2022-09-23T12:49:46;1.10;;;1.10;;
19741;SDS011;10028;48.822;11.854;2022-09-23T12:54:45;1.80;;;1.70;;
19741;SDS011;10028;48.822;11.854;2022-09-23T13:00:13;2.50;;;2.40;;
19741;SDS011;10028;48.822;11.854;2022-09-23T13:05:40;1.47;;;1.47;;
19741;SDS011;10028;48.822;11.854;2022-09-23T13:08:38;1.53;;;1.53;;
19741;SDS011;10028;48.822;11.854;2022-09-23T13:11:22;1.60;;;1.60;;
19741;SDS011;10028;48.822;11.854;2022-09-23T13:13:53;1.33;;;1.33;;
19741;SDS011;10028;48.822;11.854;2022-09-23T13:16:31;1.50;;;1.50;;
19741;SDS011;10028;48.822;11.854;2022-09-23T13:19:44;1.20;;;1.20;;
19741;SDS011;10028;48.822;11.854;2022-09-23T13:21:58;1.53;;;1.53;;
19741;SDS011;10028;48.822;11.854;2022-09-23T13:24:47;1.20;;;1.20;;
19741;SDS011;10028;48.822;11.854;2022-09-23T13:27:27;1.43;;;1.43;;
19741;SDS011;10028;48.822;11.854;2022-09-23T13:32:29;1.30;;;1.30;;
19741;SDS011;10028;48.822;11.854;2022-09-23T13:36:16;2.30;;;2.20;;
19741;SDS011;10028;48.822;11.854;2022-09-23T13:38:25;1.10;;;1.10;;
19741;SDS011;10028;48.822;11.854;2022-09-23T13:40:59;1.60;;;1.60;;
19741;SDS011;10028;48.822;11.854;2022-09-23T13:45:57;1.70;;;1.70;;
19741;SDS011;10028;48.822;11.854;2022-09-23T13:48:25;1.97;;;1.87;;
19741;SDS011;10028;48.822;11.854;2022-09-23T13:50:53;1.40;;;1.40;;
19741;SDS011;10028;48.822;11.854;2022-09-23T13:53:25;1.40;;;1.40;;
19741;SDS011;10028;48.822;11.854;2022-09-23T13:55:59;1.10;;;1.10;;
19741;SDS011;10028;48.822;11.854;2022-09-23T13:58:27;1.53;;;1.53;;
19741;SDS011;10028;48.822;11.854;2022-09-23T14:00:55;1.80;;;1.80;;
19741;SDS011;10028;48.822;11.854;2022-09-23T14:03:24;1.57;;;1.57;;
19741;SDS011;10028;48.822;11.854;2022-09-23T14:05:51;1.20;;;1.20;;
19741;SDS011;10028;48.822;11.854;2022-09-23T14:08:21;1.67;;;1.67;;
19741;SDS011;10028;48.822;11.854;2022-09-23T14:10:49;1.50;;;1.50;;
19741;SDS011;10028;48.822;11.854;2022-09-23T14:13:17;1.50;;;1.50;;
19741;SDS011;10028;48.822;11.854;2022-09-23T14:15:54;1.20;;;1.20;;
19741;SDS011;10028;48.822;11.854;2022-09-23T14:18:29;1.20;;;1.20;;
19741;SDS011;10028;48.822;11.854;2022-09-23T14:20:57;1.33;;;1.33;;
19741;SDS011;10028;48.822;11.854;2022-09-23T14:23:25;1.30;;;1.30;;
19741;SDS011;10028;48.822;11.854;2022-09-23T14:25:52;2.53;;;2.43;;
19741;SDS011;10028;48.822;11.854;2022-09-23T14:28:21;1.60;;;1.60;;
19741;SDS011;10028;48.822;11.854;2022-09-23T14:30:50;65.30;;;3.13;;
19741;SDS011;10028;48.822;11.854;2022-09-23T14:33:24;1.60;;;1.60;;
19741;SDS011;10028;48.822;11.854;2022-09-23T14:35:55;1.30;;;1.30;;
19741;SDS011;10028;48.822;11.854;2022-09-23T14:38:34;1.60;;;1.60;;
19741;SDS011;10028;48.822;11.854;2022-09-23T14:41:23;1.50;;;1.50;;
19741;SDS011;10028;48.822;11.854;2022-09-23T14:43:59;1.60;;;1.60;;
19741;SDS011;10028;48.822;11.854;2022-09-23T14:46:30;1.57;;;1.57;;
19741;SDS011;10028;48.822;11.854;2022-09-23T14:49:03;1.30;;;1.30;;
19741;SDS011;10028;48.822;11.854;2022-09-23T14:54:23;1.20;;;1.20;;
19741;SDS011;10028;48.822;11.854;2022-09-23T14:57:01;1.67;;;1.67;;
19741;SDS011;10028;48.822;11.854;2022-09-23T14:59:58;1.57;;;1.57;;
19741;SDS011;10028;48.822;11.854;2022-09-23T15:02:34;1.67;;;1.67;;
19741;SDS011;10028;48.822;11.854;2022-09-23T15:07:41;1.63;;;1.63;;
19741;SDS011;10028;48.822;11.854;2022-09-23T15:10:15;1.47;;;1.47;;
19741;SDS011;10028;48.822;11.854;2022-09-23T15:12:52;2.07;;;1.97;;
19741;SDS011;10028;48.822;11.854;2022-09-23T15:15:25;1.60;;;1.60;;
19741;SDS011;10028;48.822;11.854;2022-09-23T15:18:01;1.23;;;1.23;;
19741;SDS011;10028;48.822;11.854;2022-09-23T15:20:32;1.40;;;1.40;;
19741;SDS011;10028;48.822;11.854;2022-09-23T15:23:00;1.73;;;1.73;;
19741;SDS011;10028;48.822;11.854;2022-09-23T15:25:31;1.40;;;1.40;;
19741;SDS011;10028;48.822;11.854;2022-09-23T15:28:23;1.23;;;1.23;;
19741;SDS011;10028;48.822;11.854;2022-09-23T15:30:50;1.33;;;1.33;;
19741;SDS011;10028;48.822;11.854;2022-09-23T15:33:18;1.63;;;1.63;;
19741;SDS011;10028;48.822;11.854;2022-09-23T15:35:51;1.67;;;1.67;;
19741;SDS011;10028;48.822;11.854;2022-09-23T15:38:19;1.30;;;1.30;;
19741;SDS011;10028;48.822;11.854;2022-09-23T15:40:46;1.50;;;1.50;;
19741;SDS011;10028;48.822;11.854;2022-09-23T15:43:15;1.20;;;1.20;;
19741;SDS011;10028;48.822;11.854;2022-09-23T15:45:50;1.80;;;1.80;;
19741;SDS011;10028;48.822;11.854;2022-09-23T15:48:19;1.37;;;1.37;;
19741;SDS011;10028;48.822;11.854;2022-09-23T15:50:57;1.17;;;1.17;;
19741;SDS011;10028;48.822;11.854;2022-09-23T15:53:29;1.40;;;1.40;;
19741;SDS011;10028;48.822;11.854;2022-09-23T15:55:56;1.50;;;1.50;;
19741;SDS011;10028;48.822;11.854;2022-09-23T15:58:24;1.40;;;1.40;;
19741;SDS011;10028;48.822;11.854;2022-09-23T16:00:52;1.50;;;1.50;;
19741;SDS011;10028;48.822;11.854;2022-09-23T16:03:22;1.43;;;1.43;;
19741;SDS011;10028;48.822;11.854;2022-09-23T16:05:57;1.63;;;1.63;;
19741;SDS011;10028;48.822;11.854;2022-09-23T16:08:27;1.43;;;1.43;;
19741;SDS011;10028;48.822;11.854;2022-09-23T16:10:57;1.73;;;1.73;;
19741;SDS011;10028;48.822;11.854;2022-09-23T16:13:24;2.33;;;2.13;;
19741;SDS011;10028;48.822;11.854;2022-09-23T16:15:52;1.57;;;1.57;;
19741;SDS011;10028;48.822;11.854;2022-09-23T16:18:19;1.40;;;1.40;;
19741;SDS011;10028;48.822;11.854;2022-09-23T16:20:46;1.50;;;1.50;;
19741;SDS011;10028;48.822;11.854;2022-09-23T16:23:25;1.57;;;1.57;;
19741;SDS011;10028;48.822;11.854;2022-09-23T16:26:01;1.30;;;1.30;;
19741;SDS011;10028;48.822;11.854;2022-09-23T16:28:50;2.33;;;2.23;;
19741;SDS011;10028;48.822;11.854;2022-09-23T16:31:18;1.40;;;1.40;;
19741;SDS011;10028;48.822;11.854;2022-09-23T16:33:46;1.40;;;1.40;;
19741;SDS011;10028;48.822;11.854;2022-09-23T16:36:26;1.50;;;1.50;;
19741;SDS011;10028;48.822;11.854;2022-09-23T16:38:59;1.27;;;1.27;;
19741;SDS011;10028;48.822;11.854;2022-09-23T16:41:29;1.70;;;1.60;;
19741;SDS011;10028;48.822;11.854;2022-09-23T16:44:00;1.43;;;1.43;;
19741;SDS011;10028;48.822;11.854;2022-09-23T16:46:29;1.60;;;1.60;;
19741;SDS011;10028;48.822;11.854;2022-09-23T16:48:57;1.43;;;1.43;;
19741;SDS011;10028;48.822;11.854;2022-09-23T16:51:26;4.17;;;3.73;;
19741;SDS011;10028;48.822;11.854;2022-09-23T16:54:10;1.63;;;1.63;;
19741;SDS011;10028;48.822;11.854;2022-09-23T16:56:38;1.37;;;1.37;;
19741;SDS011;10028;48.822;11.854;2022-09-23T16:59:13;1.60;;;1.60;;
19741;SDS011;10028;48.822;11.854;2022-09-23T17:01:41;2.73;;;2.63;;
19741;SDS011;10028;48.822;11.854;2022-09-23T17:04:27;1.60;;;1.60;;
19741;SDS011;10028;48.822;11.854;2022-09-23T17:06:54;1.80;;;1.80;;
19741;SDS011;10028;48.822;11.854;2022-09-23T17:09:23;1.53;;;1.53;;
19741;SDS011;10028;48.822;11.854;2022-09-23T17:12:04;1.87;;;1.87;;
19741;SDS011;10028;48.822;11.854;2022-09-23T17:14:40;1.57;;;1.57;;
19741;SDS011;10028;48.822;11.854;2022-09-23T17:17:07;1.50;;;1.50;;
19741;SDS011;10028;48.822;11.854;2022-09-23T17:19:36;2.77;;;2.47;;
19741;SDS011;10028;48.822;11.854;2022-09-23T17:22:03;1.67;;;1.67;;